createdAt,value
2023-05-19T00:01:48.184Z,1.53
2023-05-19T00:04:15.477Z,1.40
2023-05-19T00:06:42.351Z,1.80
2023-05-19T00:09:10.086Z,1.60
2023-05-19T00:11:38.439Z,1.37
2023-05-19T00:14:07.640Z,1.40
2023-05-19T00:16:34.568Z,1.60
2023-05-19T00:19:03.055Z,1.60
2023-05-19T00:21:31.212Z,1.40
2023-05-19T00:23:58.195Z,1.40
2023-05-19T00:26:27.070Z,1.27
2023-05-19T00:28:53.871Z,1.37
2023-05-19T00:31:20.501Z,1.50
2023-05-19T00:33:47.016Z,1.33
2023-05-19T00:36:13.552Z,1.30
2023-05-19T00:38:40.041Z,1.27
2023-05-19T00:41:07.049Z,1.30
2023-05-19T00:43:34.402Z,1.40
2023-05-19T00:46:01.026Z,1.60
2023-05-19T00:48:27.679Z,1.53
2023-05-19T00:50:57.909Z,1.80
2023-05-19T00:53:24.582Z,1.50
2023-05-19T00:55:51.108Z,1.40
2023-05-19T00:58:18.608Z,1.60
2023-05-19T01:00:45.689Z,1.90
2023-05-19T01:03:12.402Z,1.50
2023-05-19T01:05:41.669Z,1.37
2023-05-19T01:08:08.859Z,1.33
2023-05-19T01:10:35.405Z,1.63
2023-05-19T01:13:02.952Z,1.47
2023-05-19T01:15:29.611Z,1.43
2023-05-19T01:18:01.893Z,1.60
2023-05-19T01:20:36.203Z,1.80
2023-05-19T01:23:21.440Z,1.37
2023-05-19T01:25:47.838Z,1.70
2023-05-19T01:28:27.242Z,1.73
2023-05-19T01:30:55.889Z,1.40
2023-05-19T01:33:23.461Z,1.40
2023-05-19T01:35:51.400Z,1.70
2023-05-19T01:38:18.986Z,1.70
2023-05-19T01:40:46.092Z,1.40
2023-05-19T01:43:18.127Z,1.50
2023-05-19T01:45:45.357Z,1.70
2023-05-19T01:48:13.363Z,1.43
2023-05-19T01:50:41.073Z,1.70
2023-05-19T01:53:07.904Z,1.77
2023-05-19T01:55:50.282Z,1.60
2023-05-19T01:58:44.354Z,1.53
2023-05-19T02:01:33.899Z,1.70
2023-05-19T02:04:13.556Z,1.87
2023-05-19T02:06:48.619Z,2.20
2023-05-19T02:09:42.030Z,2.13
2023-05-19T02:12:41.001Z,2.40
2023-05-19T02:15:11.609Z,2.17
2023-05-19T02:17:47.732Z,2.40
2023-05-19T02:20:15.559Z,2.50
2023-05-19T02:22:42.696Z,2.33
2023-05-19T02:25:09.722Z,2.20
2023-05-19T02:27:37.326Z,2.50
2023-05-19T02:30:08.382Z,2.70
2023-05-19T02:32:36.402Z,2.27
2023-05-19T02:35:04.030Z,2.50
2023-05-19T02:37:31.134Z,2.60
2023-05-19T02:39:57.718Z,1.90
2023-05-19T02:42:24.319Z,2.90
2023-05-19T02:44:51.522Z,3.30
2023-05-19T02:47:18.018Z,3.30
2023-05-19T02:49:45.009Z,3.20
2023-05-19T02:52:12.218Z,2.90
2023-05-19T02:54:38.786Z,3.40
2023-05-19T02:57:05.428Z,3.30
2023-05-19T02:59:32.137Z,3.20
2023-05-19T03:02:02.160Z,4.00
2023-05-19T03:04:29.773Z,4.50
2023-05-19T03:06:57.393Z,3.87
2023-05-19T03:09:23.932Z,4.20
2023-05-19T03:11:50.422Z,3.70
2023-05-19T03:14:18.618Z,4.10
2023-05-19T03:16:45.491Z,3.90
2023-05-19T03:19:12.510Z,4.13
2023-05-19T03:21:39.245Z,4.10
2023-05-19T03:24:06.701Z,4.13
2023-05-19T03:26:33.287Z,4.47
2023-05-19T03:28:59.760Z,4.67
2023-05-19T03:31:26.990Z,4.97
2023-05-19T03:33:53.599Z,5.10
2023-05-19T03:36:22.003Z,5.47
2023-05-19T03:38:48.636Z,5.10
2023-05-19T03:41:15.252Z,5.40
2023-05-19T03:43:41.790Z,5.33
2023-05-19T03:46:08.395Z,5.07
2023-05-19T03:48:34.915Z,5.33
2023-05-19T03:51:01.955Z,4.83
2023-05-19T03:53:30.319Z,4.60
2023-05-19T03:55:56.980Z,4.40
2023-05-19T03:58:24.161Z,4.53
2023-05-19T04:00:50.989Z,4.37
2023-05-19T04:03:17.548Z,4.23
2023-05-19T04:05:44.209Z,5.60
2023-05-19T04:08:10.856Z,4.03
2023-05-19T04:10:37.380Z,4.83
2023-05-19T04:13:03.938Z,5.47
2023-05-19T04:15:30.608Z,4.90
2023-05-19T04:17:57.336Z,4.53
2023-05-19T04:20:23.952Z,3.93
2023-05-19T04:22:50.470Z,3.53
2023-05-19T04:25:17.031Z,4.00
2023-05-19T04:27:43.628Z,4.70
2023-05-19T04:30:10.519Z,3.93
2023-05-19T04:32:37.528Z,3.90
2023-05-19T04:35:04.717Z,4.10
2023-05-19T04:37:31.515Z,4.17
2023-05-19T04:39:58.096Z,3.97
2023-05-19T04:42:26.107Z,3.50
2023-05-19T04:44:52.678Z,3.67
2023-05-19T04:47:21.400Z,3.50
2023-05-19T04:49:48.046Z,3.20
2023-05-19T04:52:14.622Z,2.90
2023-05-19T04:54:41.888Z,2.97
2023-05-19T04:57:08.564Z,3.13
2023-05-19T04:59:35.372Z,2.97
2023-05-19T05:02:02.176Z,2.40
2023-05-19T05:04:29.054Z,3.30
2023-05-19T05:06:55.535Z,3.17
2023-05-19T05:09:22.119Z,3.07
2023-05-19T05:11:48.903Z,2.70
2023-05-19T05:14:16.244Z,3.07
2023-05-19T05:16:43.612Z,4.00
2023-05-19T05:19:10.601Z,3.40
2023-05-19T05:21:37.316Z,3.33
2023-05-19T05:24:04.183Z,3.63
2023-05-19T05:26:33.617Z,3.87
2023-05-19T05:29:00.147Z,3.83
2023-05-19T05:31:26.866Z,3.67
2023-05-19T05:33:53.530Z,3.90
2023-05-19T05:36:20.041Z,4.23
2023-05-19T05:38:46.677Z,4.17
2023-05-19T05:41:13.172Z,4.10
2023-05-19T05:43:39.704Z,4.90
2023-05-19T05:46:06.331Z,4.27
2023-05-19T05:48:33.222Z,4.70
2023-05-19T05:51:00.261Z,4.37
2023-05-19T05:53:30.779Z,4.97
2023-05-19T05:55:57.701Z,5.20
2023-05-19T05:58:24.294Z,4.77
2023-05-19T06:00:51.495Z,4.73
2023-05-19T06:03:18.133Z,4.50
2023-05-19T06:05:44.810Z,4.40
2023-05-19T06:08:11.393Z,4.80
2023-05-19T06:10:41.616Z,4.90
2023-05-19T06:13:08.227Z,4.30
2023-05-19T06:15:34.780Z,4.00
2023-05-19T06:18:01.493Z,4.03
2023-05-19T06:20:28.555Z,4.27
2023-05-19T06:22:55.806Z,4.83
2023-05-19T06:25:22.854Z,4.47
2023-05-19T06:27:49.376Z,4.07
2023-05-19T06:30:16.029Z,4.30
2023-05-19T06:32:42.566Z,5.17
2023-05-19T06:35:09.264Z,4.40
2023-05-19T06:37:36.057Z,4.40
2023-05-19T06:40:02.576Z,4.90
2023-05-19T06:42:29.086Z,5.20
2023-05-19T06:44:55.657Z,5.63
2023-05-19T06:47:22.153Z,5.10
2023-05-19T06:49:55.043Z,5.63
2023-05-19T06:52:22.664Z,5.60
2023-05-19T06:54:49.680Z,5.20
2023-05-19T06:57:16.381Z,4.63
2023-05-19T06:59:43.587Z,5.00
2023-05-19T07:02:10.278Z,5.30
2023-05-19T07:04:36.907Z,5.63
2023-05-19T07:07:03.747Z,4.13
2023-05-19T07:09:30.337Z,4.70
2023-05-19T07:11:56.831Z,4.03
2023-05-19T07:14:23.578Z,4.47
2023-05-19T07:16:50.201Z,4.87
2023-05-19T07:19:19.358Z,3.60
2023-05-19T07:21:46.664Z,4.10
2023-05-19T07:24:13.369Z,3.67
2023-05-19T07:26:40.505Z,3.60
2023-05-19T07:29:07.099Z,4.00
2023-05-19T07:31:33.764Z,3.90
2023-05-19T07:34:00.259Z,3.40
2023-05-19T07:36:27.522Z,3.80
2023-05-19T07:38:54.149Z,3.43
2023-05-19T07:41:21.844Z,4.67
2023-05-19T07:43:48.915Z,4.00
2023-05-19T07:46:15.623Z,3.83
2023-05-19T07:48:42.570Z,3.60
2023-05-19T07:51:10.372Z,3.60
2023-05-19T07:53:37.254Z,4.30
2023-05-19T07:56:04.465Z,3.97
2023-05-19T07:58:31.449Z,4.03
2023-05-19T08:00:58.916Z,4.33
2023-05-19T08:03:26.597Z,4.40
2023-05-19T08:05:53.227Z,4.00
2023-05-19T08:08:19.803Z,4.20
2023-05-19T08:10:46.405Z,4.60
2023-05-19T08:13:12.918Z,3.97
2023-05-19T08:15:39.458Z,4.63
2023-05-19T08:18:06.145Z,5.27
2023-05-19T08:20:34.128Z,4.53
2023-05-19T08:23:00.872Z,4.67
2023-05-19T08:25:27.501Z,4.23
2023-05-19T08:27:54.043Z,4.60
2023-05-19T08:30:20.659Z,4.60
2023-05-19T08:32:48.867Z,5.90
2023-05-19T08:35:15.637Z,5.17
2023-05-19T08:37:42.215Z,5.20
2023-05-19T08:40:12.351Z,5.10
2023-05-19T08:42:38.921Z,5.23
2023-05-19T08:45:06.114Z,5.03
2023-05-19T08:47:33.285Z,4.97
2023-05-19T08:50:07.595Z,4.93
2023-05-19T08:52:53.644Z,5.37
2023-05-19T08:55:34.186Z,5.90
2023-05-19T08:58:01.713Z,4.97
2023-05-19T09:00:29.486Z,5.17
2023-05-19T09:03:00.478Z,5.27
2023-05-19T09:05:33.384Z,5.63
2023-05-19T09:08:02.681Z,6.10
2023-05-19T09:10:29.337Z,5.30
2023-05-19T09:12:56.056Z,5.00
2023-05-19T09:15:26.676Z,5.80
2023-05-19T09:18:06.505Z,5.27
2023-05-19T09:20:33.134Z,5.97
2023-05-19T09:22:59.832Z,5.27
2023-05-19T09:25:26.475Z,5.03
2023-05-19T09:27:54.982Z,4.43
2023-05-19T09:30:21.673Z,5.20
2023-05-19T09:32:48.490Z,4.40
2023-05-19T09:35:20.110Z,5.40
2023-05-19T09:37:46.828Z,5.27
2023-05-19T09:40:16.519Z,5.23
2023-05-19T09:42:44.159Z,5.53
2023-05-19T09:45:11.441Z,5.67
2023-05-19T09:47:39.999Z,5.53
2023-05-19T09:50:10.727Z,5.93
2023-05-19T09:52:43.567Z,5.13
2023-05-19T09:55:11.691Z,5.50
2023-05-19T09:57:40.036Z,5.77
2023-05-19T10:00:20.748Z,5.70
2023-05-19T10:02:48.204Z,5.57
2023-05-19T10:05:17.558Z,5.47
2023-05-19T10:07:45.799Z,5.33
2023-05-19T10:10:14.052Z,5.60
2023-05-19T10:12:41.552Z,6.40
2023-05-19T10:15:12.576Z,5.60
2023-05-19T10:17:40.685Z,5.70
2023-05-19T10:20:11.137Z,5.70
2023-05-19T10:22:38.187Z,5.77
2023-05-19T10:25:05.603Z,5.63
2023-05-19T10:27:33.913Z,5.40
2023-05-19T10:30:05.014Z,5.60
2023-05-19T10:32:32.720Z,5.30
2023-05-19T10:35:12.256Z,5.20
2023-05-19T10:37:45.985Z,6.00
2023-05-19T10:40:27.913Z,5.13
2023-05-19T10:43:21.843Z,5.43
2023-05-19T10:45:49.587Z,5.37
2023-05-19T10:48:17.188Z,5.10
2023-05-19T10:50:45.861Z,5.33
2023-05-19T10:53:18.454Z,5.67
2023-05-19T10:55:59.093Z,4.97
2023-05-19T10:58:44.000Z,4.57
2023-05-19T11:01:15.377Z,4.83
2023-05-19T11:04:12.160Z,5.40
2023-05-19T11:06:40.354Z,5.03
2023-05-19T11:09:13.056Z,5.53
2023-05-19T11:11:47.862Z,5.50
2023-05-19T11:14:23.103Z,5.30
2023-05-19T11:16:51.751Z,5.77
2023-05-19T11:19:27.755Z,5.60
2023-05-19T11:21:55.423Z,5.53
2023-05-19T11:24:35.871Z,4.87
2023-05-19T11:27:32.615Z,5.40
2023-05-19T11:30:14.363Z,5.30
2023-05-19T11:32:44.054Z,4.87
2023-05-19T11:35:11.069Z,5.10
2023-05-19T11:37:37.703Z,5.33
2023-05-19T11:40:08.900Z,5.63
2023-05-19T11:42:37.157Z,5.43
2023-05-19T11:45:04.932Z,6.03
2023-05-19T11:47:42.083Z,5.03
2023-05-19T11:50:20.162Z,4.57
2023-05-19T11:52:47.573Z,4.97
2023-05-19T11:55:22.050Z,4.80
2023-05-19T11:58:05.178Z,5.20
2023-05-19T12:00:37.862Z,5.70
2023-05-19T12:03:05.095Z,5.20
2023-05-19T12:05:34.882Z,5.23
2023-05-19T12:08:04.216Z,5.13
2023-05-19T12:10:31.838Z,5.33
2023-05-19T12:12:59.264Z,4.83
2023-05-19T12:15:26.026Z,4.67
2023-05-19T12:18:01.240Z,4.77
2023-05-19T12:20:31.781Z,4.53
2023-05-19T12:22:59.319Z,5.10
2023-05-19T12:25:25.993Z,5.30
2023-05-19T12:27:58.093Z,5.40
2023-05-19T12:30:27.022Z,5.23
2023-05-19T12:32:54.511Z,5.03
2023-05-19T12:35:23.268Z,5.33
2023-05-19T12:37:50.547Z,4.90
2023-05-19T12:40:17.284Z,5.00
2023-05-19T12:42:48.799Z,4.93
2023-05-19T12:45:15.443Z,5.20
2023-05-19T12:47:42.041Z,4.77
2023-05-19T12:50:10.288Z,4.70
2023-05-19T12:52:47.390Z,4.73
2023-05-19T12:55:16.352Z,4.50
2023-05-19T12:57:50.667Z,4.57
2023-05-19T13:00:22.695Z,5.20
2023-05-19T13:03:06.041Z,5.23
2023-05-19T13:05:34.714Z,4.37
2023-05-19T13:08:06.647Z,4.87
2023-05-19T13:10:34.636Z,4.57
2023-05-19T13:13:01.849Z,4.87
2023-05-19T13:15:34.474Z,5.27
2023-05-19T13:18:02.581Z,4.50
2023-05-19T13:20:29.510Z,4.30
2023-05-19T13:22:56.944Z,4.60
2023-05-19T13:25:23.502Z,5.10
2023-05-19T13:27:50.191Z,4.40
2023-05-19T13:30:18.439Z,5.07
2023-05-19T13:32:45.829Z,4.50
2023-05-19T13:35:13.310Z,5.20
2023-05-19T13:37:40.054Z,5.03
2023-05-19T13:40:07.471Z,4.97
2023-05-19T13:42:35.045Z,5.10
2023-05-19T13:45:02.121Z,5.23
2023-05-19T13:47:28.805Z,5.10
2023-05-19T13:49:55.490Z,5.33
2023-05-19T13:52:22.042Z,5.63
2023-05-19T13:54:49.168Z,5.20
2023-05-19T13:57:16.589Z,4.83
2023-05-19T14:00:00.207Z,5.23
2023-05-19T14:02:28.122Z,5.33
2023-05-19T14:04:55.918Z,5.13
2023-05-19T14:07:22.491Z,5.10
2023-05-19T14:09:51.037Z,5.07
2023-05-19T14:12:17.526Z,4.80
2023-05-19T14:14:44.021Z,5.20
2023-05-19T14:17:10.757Z,5.33
2023-05-19T14:19:37.293Z,5.13
2023-05-19T14:22:04.114Z,5.40
2023-05-19T14:24:30.842Z,5.53
2023-05-19T14:26:57.379Z,5.47
2023-05-19T14:29:23.846Z,5.50
2023-05-19T14:31:50.828Z,5.17
2023-05-19T14:34:20.840Z,5.38
2023-05-19T14:36:48.001Z,5.37
2023-05-19T14:39:14.877Z,5.37
2023-05-19T14:41:41.435Z,4.93
2023-05-19T14:44:07.982Z,4.93
2023-05-19T14:46:34.749Z,4.80
2023-05-19T14:49:01.482Z,5.17
2023-05-19T14:51:28.028Z,4.40
2023-05-19T14:53:54.776Z,5.03
2023-05-19T14:56:22.563Z,4.90
2023-05-19T14:58:49.083Z,4.73
2023-05-19T15:01:15.762Z,4.37
2023-05-19T15:03:42.331Z,5.03
2023-05-19T15:06:11.504Z,4.83
2023-05-19T15:08:39.126Z,4.90
2023-05-19T15:11:05.652Z,5.20
2023-05-19T15:13:32.154Z,5.50
2023-05-19T15:16:12.265Z,5.53
2023-05-19T15:18:42.472Z,4.73
2023-05-19T15:21:09.072Z,5.17
2023-05-19T15:23:35.637Z,5.67
2023-05-19T15:26:02.161Z,5.17
2023-05-19T15:28:28.740Z,5.70
2023-05-19T15:30:55.312Z,5.57
2023-05-19T15:33:21.868Z,5.10
2023-05-19T15:35:51.581Z,5.00
2023-05-19T15:38:21.237Z,5.60
2023-05-19T15:40:47.785Z,5.50
2023-05-19T15:43:14.354Z,4.97
2023-05-19T15:45:41.024Z,5.63
2023-05-19T15:48:07.680Z,5.47
2023-05-19T15:50:34.683Z,5.30
2023-05-19T15:53:01.587Z,5.03
2023-05-19T15:55:28.162Z,5.77
2023-05-19T15:57:54.749Z,5.43
2023-05-19T16:00:21.467Z,5.30
2023-05-19T16:02:48.171Z,5.50
2023-05-19T16:05:14.749Z,5.63
2023-05-19T16:07:42.225Z,5.83
2023-05-19T16:10:09.278Z,5.20
2023-05-19T16:12:36.591Z,5.07
2023-05-19T16:15:03.596Z,5.40
2023-05-19T16:17:30.309Z,5.00
2023-05-19T16:19:56.879Z,5.07
2023-05-19T16:22:24.824Z,5.30
2023-05-19T16:24:52.137Z,5.57
2023-05-19T16:27:18.915Z,5.20
2023-05-19T16:29:45.633Z,5.33
2023-05-19T16:32:12.613Z,6.00
2023-05-19T16:34:39.419Z,5.57
2023-05-19T16:37:06.139Z,6.00
2023-05-19T16:39:32.760Z,5.67
2023-05-19T16:41:59.370Z,5.67
2023-05-19T16:44:26.298Z,5.80
2023-05-19T16:46:52.790Z,5.70
2023-05-19T16:49:19.326Z,5.33
2023-05-19T16:51:47.580Z,5.60
2023-05-19T16:54:15.458Z,4.67
2023-05-19T16:56:41.969Z,5.03
2023-05-19T16:59:09.367Z,8.93
2023-05-19T17:01:35.895Z,5.77
2023-05-19T17:04:02.625Z,5.57
2023-05-19T17:06:29.520Z,5.03
2023-05-19T17:08:56.090Z,4.90
2023-05-19T17:11:22.691Z,5.50
2023-05-19T17:13:49.322Z,4.73
2023-05-19T17:16:15.949Z,5.20
2023-05-19T17:18:43.672Z,5.10
2023-05-19T17:21:10.512Z,4.90
2023-05-19T17:23:37.871Z,4.93
2023-05-19T17:26:04.586Z,4.87
2023-05-19T17:28:31.715Z,5.67
2023-05-19T17:30:58.315Z,5.40
2023-05-19T17:33:25.006Z,5.77
2023-05-19T17:35:51.713Z,6.00
2023-05-19T17:38:18.190Z,10.10
2023-05-19T17:40:44.697Z,6.60
2023-05-19T17:43:11.342Z,5.30
2023-05-19T17:45:37.938Z,5.17
2023-05-19T17:48:04.936Z,5.50
2023-05-19T17:50:31.964Z,5.93
2023-05-19T17:52:59.009Z,5.33
2023-05-19T17:55:30.427Z,5.33
2023-05-19T17:57:57.633Z,5.43
2023-05-19T18:00:25.243Z,5.53
2023-05-19T18:02:52.518Z,6.27
2023-05-19T18:05:19.739Z,6.40
2023-05-19T18:07:46.420Z,6.77
2023-05-19T18:10:15.241Z,5.93
2023-05-19T18:12:41.994Z,6.77
2023-05-19T18:15:08.765Z,7.00
2023-05-19T18:17:35.482Z,10.70
2023-05-19T18:20:02.576Z,6.27
2023-05-19T18:22:29.121Z,6.57
2023-05-19T18:24:57.562Z,6.90
2023-05-19T18:27:24.229Z,6.50
2023-05-19T18:29:50.896Z,7.50
2023-05-19T18:32:17.757Z,7.33
2023-05-19T18:34:44.412Z,6.43
2023-05-19T18:37:10.920Z,6.57
2023-05-19T18:39:37.513Z,6.73
2023-05-19T18:42:04.404Z,7.60
2023-05-19T18:44:31.138Z,6.67
2023-05-19T18:46:57.634Z,6.87
2023-05-19T18:49:25.333Z,6.37
2023-05-19T18:51:51.985Z,6.90
2023-05-19T18:54:20.309Z,6.60
2023-05-19T18:56:46.874Z,6.23
2023-05-19T18:59:13.458Z,7.00
2023-05-19T19:01:40.151Z,7.63
2023-05-19T19:04:06.869Z,7.40
2023-05-19T19:06:33.425Z,7.23
2023-05-19T19:08:59.984Z,6.73
2023-05-19T19:11:26.687Z,6.60
2023-05-19T19:13:55.458Z,7.20
2023-05-19T19:16:22.223Z,6.50
2023-05-19T19:18:49.008Z,6.43
2023-05-19T19:21:15.605Z,6.73
2023-05-19T19:23:42.077Z,6.57
2023-05-19T19:26:09.546Z,7.30
2023-05-19T19:28:36.402Z,6.90
2023-05-19T19:31:03.032Z,7.17
2023-05-19T19:33:29.603Z,6.43
2023-05-19T19:35:56.422Z,7.23
2023-05-19T19:38:22.937Z,7.27
2023-05-19T19:40:51.605Z,6.53
2023-05-19T19:43:18.372Z,7.53
2023-05-19T19:45:44.915Z,6.77
2023-05-19T19:48:12.187Z,7.57
2023-05-19T19:50:38.818Z,7.60
2023-05-19T19:53:05.389Z,7.57
2023-05-19T19:55:32.182Z,6.83
2023-05-19T19:57:58.682Z,7.53
2023-05-19T20:00:25.180Z,7.93
2023-05-19T20:03:04.435Z,7.67
2023-05-19T20:05:31.923Z,7.80
2023-05-19T20:07:58.621Z,8.37
2023-05-19T20:10:25.186Z,7.67
2023-05-19T20:12:51.992Z,7.57
2023-05-19T20:15:19.491Z,6.93
2023-05-19T20:17:46.191Z,7.57
2023-05-19T20:20:13.138Z,8.33
2023-05-19T20:22:39.748Z,8.10
2023-05-19T20:25:06.563Z,8.27
2023-05-19T20:27:33.228Z,8.13
2023-05-19T20:30:00.011Z,8.23
2023-05-19T20:32:26.601Z,7.77
2023-05-19T20:34:53.125Z,7.67
2023-05-19T20:37:21.484Z,8.00
2023-05-19T20:39:48.057Z,9.10
2023-05-19T20:42:14.719Z,7.67
2023-05-19T20:44:41.529Z,7.50
2023-05-19T20:47:08.428Z,9.23
2023-05-19T20:49:35.209Z,8.30
2023-05-19T20:52:01.923Z,8.53
2023-05-19T20:54:28.481Z,8.17
2023-05-19T20:56:55.163Z,8.07
2023-05-19T20:59:21.980Z,8.13
2023-05-19T21:01:48.548Z,8.80
2023-05-19T21:04:15.268Z,8.53
2023-05-19T21:06:41.815Z,8.40
2023-05-19T21:09:08.724Z,8.57
2023-05-19T21:11:35.480Z,8.20
2023-05-19T21:14:04.172Z,7.73
2023-05-19T21:16:31.433Z,8.10
2023-05-19T21:18:58.121Z,8.83
2023-05-19T21:21:25.355Z,8.70
2023-05-19T21:23:51.945Z,8.30
2023-05-19T21:26:18.627Z,8.33
2023-05-19T21:28:45.585Z,7.60
2023-05-19T21:31:12.394Z,8.93
2023-05-19T21:33:39.007Z,7.40
2023-05-19T21:36:05.870Z,8.87
2023-05-19T21:38:32.422Z,8.87
2023-05-19T21:40:58.997Z,7.63
2023-05-19T21:43:26.106Z,8.33
2023-05-19T21:45:52.640Z,8.13
2023-05-19T21:48:19.307Z,7.70
2023-05-19T21:50:45.972Z,8.13
2023-05-19T21:53:12.580Z,8.53
2023-05-19T21:55:39.378Z,8.57
2023-05-19T21:58:06.162Z,8.03
2023-05-19T22:00:33.036Z,9.00
2023-05-19T22:02:59.931Z,7.60
2023-05-19T22:05:26.596Z,7.93
2023-05-19T22:07:53.132Z,7.03
2023-05-19T22:10:19.739Z,8.07
2023-05-19T22:12:46.504Z,7.57
2023-05-19T22:15:15.976Z,7.77
2023-05-19T22:17:42.663Z,7.60
2023-05-19T22:20:09.542Z,8.23
2023-05-19T22:22:36.344Z,7.47
2023-05-19T22:25:03.667Z,7.53
2023-05-19T22:27:30.299Z,7.80
2023-05-19T22:29:57.146Z,8.10
2023-05-19T22:32:23.684Z,8.13
2023-05-19T22:34:50.474Z,8.10
2023-05-19T22:37:17.078Z,7.73
2023-05-19T22:39:43.623Z,8.30
2023-05-19T22:42:10.326Z,7.90
2023-05-19T22:44:36.867Z,7.40
2023-05-19T22:47:03.411Z,8.47
2023-05-19T22:49:30.191Z,8.27
2023-05-19T22:51:56.702Z,7.57
2023-05-19T22:54:23.255Z,7.83
2023-05-19T22:56:49.844Z,8.23
2023-05-19T22:59:19.017Z,9.13
2023-05-19T23:01:46.515Z,7.77
2023-05-19T23:04:13.949Z,8.20
2023-05-19T23:06:40.818Z,7.73
2023-05-19T23:09:07.659Z,7.30
2023-05-19T23:11:35.839Z,6.97
2023-05-19T23:14:02.384Z,6.97
2023-05-19T23:16:28.911Z,7.67
2023-05-19T23:18:55.652Z,8.17
2023-05-19T23:21:22.251Z,7.43
2023-05-19T23:23:49.649Z,8.43
2023-05-19T23:26:16.202Z,7.33
2023-05-19T23:28:43.025Z,8.50
2023-05-19T23:31:09.660Z,8.60
2023-05-19T23:33:36.452Z,7.07
2023-05-19T23:36:07.759Z,7.00
2023-05-19T23:38:34.832Z,7.03
2023-05-19T23:41:01.578Z,7.00
2023-05-19T23:43:28.125Z,7.07
2023-05-19T23:45:54.909Z,7.97
2023-05-19T23:48:21.532Z,7.57
2023-05-19T23:50:48.181Z,7.57
2023-05-19T23:53:14.679Z,7.07
2023-05-19T23:55:41.298Z,7.97
2023-05-19T23:58:07.783Z,7.50
